createdAt,value
2023-08-28T00:01:52.501Z,1.33
2023-08-28T00:04:40.389Z,0.52
2023-08-28T00:07:30.488Z,1.05
2023-08-28T00:10:18.453Z,1.00
2023-08-28T00:13:06.163Z,0.70
2023-08-28T00:15:54.056Z,1.27
2023-08-28T00:18:41.989Z,1.05
2023-08-28T00:21:31.664Z,0.93
2023-08-28T00:24:19.360Z,1.00
2023-08-28T00:27:07.508Z,1.42
2023-08-28T00:29:55.324Z,1.20
2023-08-28T00:32:44.795Z,1.38
2023-08-28T00:35:32.698Z,1.10
2023-08-28T00:38:20.472Z,0.82
2023-08-28T00:41:08.780Z,0.70
2023-08-28T00:43:57.809Z,0.63
2023-08-28T00:46:45.806Z,1.00
2023-08-28T00:49:34.333Z,1.13
2023-08-28T00:52:22.718Z,1.23
2023-08-28T00:55:10.641Z,0.95
2023-08-28T00:57:58.402Z,1.17
2023-08-28T01:00:46.616Z,0.82
2023-08-28T01:03:34.488Z,1.00
2023-08-28T01:06:34.394Z,1.27
2023-08-28T01:09:39.932Z,1.10
2023-08-28T01:12:53.627Z,0.90
2023-08-28T01:15:42.037Z,1.63
2023-08-28T01:18:30.140Z,0.98
2023-08-28T01:21:19.212Z,1.15
2023-08-28T01:24:10.155Z,0.88
2023-08-28T01:26:58.097Z,0.77
2023-08-28T01:29:46.024Z,0.70
2023-08-28T01:32:34.120Z,0.95
2023-08-28T01:35:29.893Z,1.73
2023-08-28T01:38:35.903Z,1.67
2023-08-28T01:41:26.425Z,1.80
2023-08-28T01:44:17.142Z,1.65
2023-08-28T01:47:06.327Z,1.70
2023-08-28T01:49:57.287Z,1.10
2023-08-28T01:52:44.936Z,1.33
2023-08-28T01:55:47.878Z,1.25
2023-08-28T01:58:46.104Z,0.93
2023-08-28T02:01:33.853Z,0.77
2023-08-28T02:04:21.582Z,1.67
2023-08-28T02:07:09.534Z,1.48
2023-08-28T02:09:57.340Z,1.40
2023-08-28T02:12:45.211Z,1.25
2023-08-28T02:15:35.348Z,1.13
2023-08-28T02:18:23.601Z,1.25
2023-08-28T02:21:11.414Z,0.93
2023-08-28T02:23:59.329Z,1.65
2023-08-28T02:26:47.051Z,1.95
2023-08-28T02:29:34.756Z,1.48
2023-08-28T02:32:22.732Z,1.05
2023-08-28T02:35:13.551Z,1.30
2023-08-28T02:38:03.557Z,1.25
2023-08-28T02:40:51.355Z,1.52
2023-08-28T02:43:42.086Z,1.15
2023-08-28T02:46:29.869Z,0.80
2023-08-28T02:49:17.615Z,0.93
2023-08-28T02:52:05.740Z,1.10
2023-08-28T02:54:53.628Z,0.82
2023-08-28T02:57:41.537Z,0.63
2023-08-28T03:00:29.253Z,1.58
2023-08-28T03:03:17.266Z,1.30
2023-08-28T03:06:05.167Z,1.00
2023-08-28T03:08:56.134Z,0.90
2023-08-28T03:11:43.938Z,1.27
2023-08-28T03:14:34.724Z,1.00
2023-08-28T03:17:22.586Z,0.75
2023-08-28T03:20:11.456Z,1.15
2023-08-28T03:22:59.185Z,0.80
2023-08-28T03:25:47.061Z,0.73
2023-08-28T03:28:34.978Z,1.42
2023-08-28T03:31:23.523Z,1.15
2023-08-28T03:34:11.365Z,2.13
2023-08-28T03:36:59.401Z,0.80
2023-08-28T03:39:47.056Z,1.02
2023-08-28T03:42:35.354Z,1.25
2023-08-28T03:45:23.449Z,1.27
2023-08-28T03:48:12.548Z,0.93
2023-08-28T03:51:00.837Z,1.00
2023-08-28T03:53:48.623Z,1.20
2023-08-28T03:56:36.256Z,1.02
2023-08-28T03:59:24.686Z,1.35
2023-08-28T04:02:12.497Z,1.33
2023-08-28T04:05:07.685Z,1.88
2023-08-28T04:07:55.914Z,1.33
2023-08-28T04:10:44.230Z,2.05
2023-08-28T04:13:32.431Z,2.47
2023-08-28T04:16:20.257Z,2.15
2023-08-28T04:19:09.835Z,1.40
2023-08-28T04:21:57.585Z,1.83
2023-08-28T04:24:47.289Z,1.52
2023-08-28T04:27:36.179Z,1.40
2023-08-28T04:30:23.906Z,1.48
2023-08-28T04:36:56.601Z,1.08
2023-08-28T04:39:47.124Z,1.17
2023-08-28T04:42:35.410Z,0.50
2023-08-28T04:45:23.759Z,1.15
2023-08-28T04:48:12.654Z,1.15
2023-08-28T04:51:04.962Z,1.73
2023-08-28T04:53:55.544Z,2.05
2023-08-28T04:56:43.407Z,1.85
2023-08-28T04:59:31.188Z,1.33
2023-08-28T05:02:19.054Z,1.00
2023-08-28T05:05:07.613Z,1.08
2023-08-28T05:07:55.524Z,2.03
2023-08-28T05:10:43.807Z,1.45
2023-08-28T05:13:33.591Z,1.73
2023-08-28T05:16:21.568Z,1.27
2023-08-28T05:19:09.466Z,1.20
2023-08-28T05:21:58.630Z,2.40
2023-08-28T05:24:46.817Z,1.20
2023-08-28T05:27:34.516Z,0.95
2023-08-28T05:30:24.515Z,0.98
2023-08-28T05:33:12.483Z,1.23
2023-08-28T05:36:00.856Z,1.23
2023-08-28T05:38:51.852Z,1.83
2023-08-28T05:41:39.661Z,1.70
2023-08-28T05:44:27.470Z,1.05
2023-08-28T05:47:20.367Z,1.75
2023-08-28T05:50:08.624Z,1.33
2023-08-28T05:52:59.351Z,0.93
2023-08-28T05:55:47.161Z,1.02
2023-08-28T05:58:37.291Z,1.10
2023-08-28T06:01:25.052Z,1.20
2023-08-28T06:04:13.555Z,1.35
2023-08-28T06:07:01.435Z,1.42
2023-08-28T06:09:49.105Z,1.00
2023-08-28T06:12:36.853Z,1.23
2023-08-28T06:15:26.157Z,0.93
2023-08-28T06:18:15.517Z,0.97
2023-08-28T06:21:03.280Z,0.90
2023-08-28T06:23:50.974Z,0.73
2023-08-28T06:26:38.826Z,1.20
2023-08-28T06:29:26.672Z,1.45
2023-08-28T06:32:14.706Z,1.48
2023-08-28T06:35:02.516Z,1.30
2023-08-28T06:37:51.607Z,1.50
2023-08-28T06:40:39.577Z,0.90
2023-08-28T06:43:27.345Z,1.17
2023-08-28T06:46:16.688Z,1.00
2023-08-28T06:49:04.503Z,0.63
2023-08-28T06:51:54.607Z,1.25
2023-08-28T06:54:51.445Z,1.45
2023-08-28T06:57:39.916Z,1.00
2023-08-28T07:00:27.651Z,1.10
2023-08-28T07:03:18.518Z,1.42
2023-08-28T07:06:06.247Z,0.95
2023-08-28T07:08:54.062Z,0.65
2023-08-28T07:11:43.058Z,0.95
2023-08-28T07:14:31.890Z,1.73
2023-08-28T07:17:22.184Z,1.10
2023-08-28T07:20:10.768Z,0.93
2023-08-28T07:22:58.622Z,0.90
2023-08-28T07:25:47.194Z,0.88
2023-08-28T07:28:35.043Z,0.70
2023-08-28T07:31:23.591Z,0.52
2023-08-28T07:34:11.152Z,0.80
2023-08-28T07:37:03.711Z,1.13
2023-08-28T07:39:56.847Z,0.88
2023-08-28T07:42:44.536Z,1.13
2023-08-28T07:45:32.294Z,0.98
2023-08-28T07:48:21.088Z,1.42
2023-08-28T07:51:10.691Z,1.15
2023-08-28T07:54:00.627Z,0.98
2023-08-28T07:56:54.208Z,1.10
2023-08-28T07:59:41.930Z,2.28
2023-08-28T08:02:32.577Z,2.17
2023-08-28T08:05:22.814Z,0.60
2023-08-28T08:08:13.659Z,1.03
2023-08-28T08:11:01.335Z,0.52
2023-08-28T08:13:49.145Z,1.05
2023-08-28T08:16:37.212Z,0.82
2023-08-28T08:19:27.824Z,0.80
2023-08-28T08:22:15.467Z,0.50
2023-08-28T08:25:03.297Z,0.88
2023-08-28T08:27:51.218Z,0.90
2023-08-28T08:30:38.997Z,0.85
2023-08-28T08:33:26.780Z,1.13
2023-08-28T08:36:19.033Z,0.80
2023-08-28T08:39:11.835Z,0.60
2023-08-28T08:41:59.841Z,0.35
2023-08-28T08:44:50.559Z,0.50
2023-08-28T08:50:38.607Z,0.55
2023-08-28T08:54:19.760Z,0.50
2023-08-28T09:00:22.906Z,0.50
2023-08-28T09:03:21.388Z,0.20
2023-08-28T09:06:23.558Z,0.52
2023-08-28T09:09:13.147Z,0.40
2023-08-28T09:12:01.390Z,0.70
2023-08-28T09:14:49.175Z,0.47
2023-08-28T09:17:45.601Z,0.25
2023-08-28T09:20:36.837Z,0.68
2023-08-28T09:23:39.902Z,0.20
2023-08-28T09:26:33.504Z,0.47
2023-08-28T09:29:26.913Z,0.40
2023-08-28T09:32:32.727Z,0.45
2023-08-28T09:35:23.907Z,0.93
2023-08-28T09:38:16.297Z,0.70
2023-08-28T09:41:24.311Z,0.55
2023-08-28T09:48:46.496Z,0.13
2023-08-28T09:51:53.866Z,0.10
2023-08-28T09:55:13.991Z,0.40
2023-08-28T09:58:38.270Z,0.20
2023-08-28T10:01:37.426Z,0.30
2023-08-28T10:04:41.821Z,0.70
2023-08-28T10:07:42.624Z,0.20
2023-08-28T10:14:37.881Z,0.08
2023-08-28T10:17:49.402Z,0.10
2023-08-28T10:21:08.666Z,0.10
2023-08-28T10:27:28.402Z,0.22
2023-08-28T10:30:25.513Z,0.10
2023-08-28T10:33:23.596Z,0.10
2023-08-28T10:36:23.971Z,0.10
2023-08-28T10:39:31.461Z,0.15
2023-08-28T10:42:28.168Z,0.35
2023-08-28T10:46:00.753Z,0.20
2023-08-28T10:48:59.748Z,0.40
2023-08-28T10:51:50.420Z,0.20
2023-08-28T10:57:54.435Z,0.10
2023-08-28T11:00:44.463Z,0.10
2023-08-28T11:03:52.276Z,0.20
2023-08-28T11:06:46.142Z,0.10
2023-08-28T11:09:37.893Z,0.35
2023-08-28T11:12:26.254Z,0.05
2023-08-28T11:15:26.043Z,0.00
2023-08-28T11:18:20.384Z,0.00
2023-08-28T11:21:09.411Z,0.10
2023-08-28T11:23:57.168Z,0.10
2023-08-28T11:26:47.693Z,0.20
2023-08-28T11:29:36.628Z,0.10
2023-08-28T11:32:25.265Z,0.10
2023-08-28T11:35:18.769Z,0.17
2023-08-28T11:38:08.042Z,0.40
2023-08-28T11:40:59.047Z,0.10
2023-08-28T11:43:46.826Z,0.10
2023-08-28T11:46:35.278Z,0.10
2023-08-28T11:49:23.053Z,0.10
2023-08-28T11:52:17.865Z,0.00
2023-08-28T11:55:07.662Z,1.17
2023-08-28T11:57:58.289Z,0.00
2023-08-28T12:00:46.469Z,0.13
2023-08-28T12:03:35.327Z,0.10
2023-08-28T12:06:23.065Z,0.10
2023-08-28T12:09:14.255Z,0.38
2023-08-28T12:12:03.768Z,0.15
2023-08-28T12:14:51.825Z,0.00
2023-08-28T12:17:40.497Z,0.00
2023-08-28T12:20:32.064Z,0.00
2023-08-28T12:23:19.920Z,0.00
2023-08-28T12:26:08.793Z,0.30
2023-08-28T12:29:01.934Z,0.00
2023-08-28T12:31:50.460Z,0.20
2023-08-28T12:34:38.733Z,0.13
2023-08-28T12:37:26.676Z,0.20
2023-08-28T12:40:14.653Z,0.00
2023-08-28T12:43:06.888Z,0.25
2023-08-28T12:45:54.694Z,0.20
2023-08-28T12:48:44.828Z,0.10
2023-08-28T12:51:32.744Z,0.10
2023-08-28T12:54:23.390Z,0.17
2023-08-28T12:57:11.863Z,0.43
2023-08-28T12:59:59.603Z,0.17
2023-08-28T13:02:52.602Z,0.40
2023-08-28T13:05:40.364Z,0.10
2023-08-28T13:08:28.435Z,0.08
2023-08-28T13:11:18.423Z,0.03
2023-08-28T13:14:08.475Z,1.02
2023-08-28T13:16:56.211Z,0.10
2023-08-28T13:19:44.029Z,0.20
2023-08-28T13:22:31.674Z,0.20
2023-08-28T13:25:21.870Z,0.10
2023-08-28T13:28:09.601Z,0.10
2023-08-28T13:30:57.311Z,0.40
2023-08-28T13:33:46.393Z,0.03
2023-08-28T13:36:39.229Z,0.00
2023-08-28T13:39:27.157Z,0.10
2023-08-28T13:42:15.121Z,0.00
2023-08-28T13:45:04.345Z,0.05
2023-08-28T13:47:37.550Z,0.10
2023-08-28T13:50:25.648Z,0.25
2023-08-28T13:53:13.541Z,0.70
2023-08-28T13:56:05.900Z,0.10
2023-08-28T13:58:54.319Z,0.20
2023-08-28T14:01:42.547Z,0.52
2023-08-28T14:04:32.198Z,0.35
2023-08-28T14:07:21.455Z,0.08
2023-08-28T14:10:15.797Z,0.10
2023-08-28T14:13:03.845Z,0.30
2023-08-28T14:15:52.574Z,0.00
2023-08-28T14:18:43.370Z,0.00
2023-08-28T14:21:31.068Z,0.25
2023-08-28T14:24:24.772Z,0.03
2023-08-28T14:27:12.631Z,0.00
2023-08-28T14:30:03.250Z,0.20
2023-08-28T14:35:46.393Z,0.28
2023-08-28T14:38:34.211Z,0.00
2023-08-28T14:41:22.263Z,0.10
2023-08-28T14:44:10.461Z,0.10
2023-08-28T14:46:58.282Z,0.60
2023-08-28T14:49:46.073Z,0.30
2023-08-28T14:52:33.809Z,0.00
2023-08-28T14:55:23.171Z,0.22
2023-08-28T14:58:10.893Z,0.03
2023-08-28T15:00:59.945Z,0.20
2023-08-28T15:03:49.860Z,0.00
2023-08-28T15:06:37.734Z,0.10
2023-08-28T15:09:25.437Z,0.10
2023-08-28T15:12:15.099Z,0.22
2023-08-28T15:15:03.031Z,0.65
2023-08-28T15:17:50.958Z,0.40
2023-08-28T15:20:38.597Z,0.20
2023-08-28T15:23:26.384Z,0.10
2023-08-28T15:26:14.719Z,0.10
2023-08-28T15:29:02.697Z,0.35
2023-08-28T15:31:51.779Z,0.93
2023-08-28T15:34:39.477Z,0.40
2023-08-28T15:37:27.171Z,0.15
2023-08-28T15:40:15.023Z,0.10
2023-08-28T15:43:03.495Z,0.28
2023-08-28T15:45:52.910Z,0.50
2023-08-28T15:48:43.587Z,0.57
2023-08-28T15:51:31.336Z,0.38
2023-08-28T15:54:18.887Z,0.30
2023-08-28T15:57:06.689Z,0.10
2023-08-28T15:59:54.369Z,0.20
2023-08-28T16:02:44.236Z,0.35
2023-08-28T16:05:34.660Z,0.20
2023-08-28T16:08:27.829Z,0.40
2023-08-28T16:11:15.602Z,0.17
2023-08-28T16:14:03.394Z,0.20
2023-08-28T16:16:51.741Z,0.90
2023-08-28T16:19:39.566Z,0.43
2023-08-28T16:22:27.329Z,0.28
2023-08-28T16:25:15.296Z,0.35
2023-08-28T16:28:04.093Z,0.35
2023-08-28T16:30:52.117Z,0.30
2023-08-28T16:33:39.992Z,0.70
2023-08-28T16:36:30.435Z,0.50
2023-08-28T16:39:26.942Z,0.75
2023-08-28T16:42:14.707Z,0.50
2023-08-28T16:45:02.543Z,0.75
2023-08-28T16:47:50.684Z,0.38
2023-08-28T16:50:42.300Z,0.50
2023-08-28T16:53:30.138Z,0.20
2023-08-28T16:56:21.203Z,0.30
2023-08-28T16:59:10.299Z,0.10
2023-08-28T17:01:57.991Z,0.30
2023-08-28T17:04:46.259Z,0.75
2023-08-28T17:07:36.985Z,0.30
2023-08-28T17:10:25.141Z,0.20
2023-08-28T17:13:15.568Z,0.70
2023-08-28T17:16:03.427Z,0.55
2023-08-28T17:18:54.049Z,0.28
2023-08-28T17:21:43.802Z,0.20
2023-08-28T17:24:33.493Z,0.10
2023-08-28T17:27:21.520Z,0.20
2023-08-28T17:30:09.767Z,0.50
2023-08-28T17:33:00.317Z,0.85
2023-08-28T17:35:48.196Z,0.50
2023-08-28T17:38:35.946Z,0.47
2023-08-28T17:41:23.744Z,0.32
2023-08-28T17:44:14.244Z,0.50
2023-08-28T17:47:02.321Z,0.57
2023-08-28T17:49:53.755Z,0.43
2023-08-28T17:52:44.192Z,0.10
2023-08-28T17:55:33.500Z,0.43
2023-08-28T17:58:34.528Z,0.28
2023-08-28T18:01:22.359Z,0.52
2023-08-28T18:04:12.905Z,0.30
2023-08-28T18:07:01.006Z,1.40
2023-08-28T18:09:52.330Z,0.73
2023-08-28T18:12:40.143Z,0.60
2023-08-28T18:15:27.760Z,0.93
2023-08-28T18:18:15.619Z,0.65
2023-08-28T18:21:03.313Z,0.40
2023-08-28T18:23:53.944Z,0.60
2023-08-28T18:26:44.160Z,0.85
2023-08-28T18:29:33.160Z,0.63
2023-08-28T18:32:20.993Z,0.40
2023-08-28T18:35:12.084Z,0.60
2023-08-28T18:38:00.246Z,0.40
2023-08-28T18:40:51.247Z,0.43
2023-08-28T18:43:39.446Z,0.30
2023-08-28T18:46:27.087Z,1.10
2023-08-28T18:49:14.943Z,0.28
2023-08-28T18:52:04.322Z,0.30
2023-08-28T18:54:55.490Z,0.47
2023-08-28T18:57:46.749Z,0.32
2023-08-28T19:00:37.043Z,0.93
2023-08-28T19:03:27.490Z,0.33
2023-08-28T19:06:15.367Z,0.57
2023-08-28T19:09:03.054Z,0.60
2023-08-28T19:11:50.781Z,0.63
2023-08-28T19:14:38.742Z,0.38
2023-08-28T19:17:26.641Z,0.63
2023-08-28T19:20:14.419Z,0.30
2023-08-28T19:23:02.120Z,0.68
2023-08-28T19:25:50.026Z,0.55
2023-08-28T19:28:37.838Z,1.08
2023-08-28T19:31:25.756Z,1.45
2023-08-28T19:34:13.488Z,1.65
2023-08-28T19:37:01.487Z,0.77
2023-08-28T19:39:49.985Z,1.25
2023-08-28T19:42:41.107Z,1.08
2023-08-28T19:45:28.829Z,0.50
2023-08-28T19:48:17.454Z,0.95
2023-08-28T19:51:09.146Z,1.23
2023-08-28T19:53:57.502Z,0.60
2023-08-28T19:56:54.253Z,0.55
2023-08-28T19:59:44.832Z,0.47
2023-08-28T20:02:32.635Z,0.70
2023-08-28T20:05:20.980Z,0.85
2023-08-28T20:08:09.637Z,0.65
2023-08-28T20:10:57.721Z,0.47
2023-08-28T20:13:45.444Z,1.15
2023-08-28T20:16:33.374Z,0.88
2023-08-28T20:19:21.569Z,0.65
2023-08-28T20:22:09.236Z,0.60
2023-08-28T20:24:56.998Z,0.45
2023-08-28T20:27:44.983Z,0.40
2023-08-28T20:30:32.944Z,0.40
2023-08-28T20:33:20.716Z,0.30
2023-08-28T20:36:08.472Z,0.30
2023-08-28T20:38:56.335Z,0.40
2023-08-28T20:41:44.026Z,0.55
2023-08-28T20:44:33.806Z,0.45
2023-08-28T20:47:21.572Z,0.70
2023-08-28T20:50:11.668Z,0.73
2023-08-28T20:52:59.379Z,0.68
2023-08-28T20:55:47.116Z,1.23
2023-08-28T20:58:36.849Z,0.90
2023-08-28T21:01:24.720Z,0.50
2023-08-28T21:04:12.563Z,0.93
2023-08-28T21:07:00.484Z,0.75
2023-08-28T21:09:48.355Z,0.30
2023-08-28T21:12:36.127Z,0.80
2023-08-28T21:15:24.077Z,0.63
2023-08-28T21:18:11.902Z,0.40
2023-08-28T21:21:02.859Z,0.63
2023-08-28T21:23:50.732Z,0.38
2023-08-28T21:26:38.421Z,0.35
2023-08-28T21:29:26.225Z,0.30
2023-08-28T21:32:13.941Z,0.43
2023-08-28T21:35:01.822Z,0.80
2023-08-28T21:37:49.622Z,0.93
2023-08-28T21:40:37.402Z,0.47
2023-08-28T21:43:25.853Z,0.45
2023-08-28T21:46:13.650Z,0.80
2023-08-28T21:49:01.283Z,0.63
2023-08-28T21:52:07.872Z,0.47
2023-08-28T21:55:14.921Z,0.77
2023-08-28T21:58:21.871Z,0.63
2023-08-28T22:01:28.613Z,0.90
2023-08-28T22:04:34.991Z,0.45
2023-08-28T22:07:41.824Z,0.45
2023-08-28T22:10:52.252Z,0.70
2023-08-28T22:14:07.997Z,0.25
2023-08-28T22:16:55.935Z,0.43
2023-08-28T22:19:44.153Z,0.63
2023-08-28T22:22:32.176Z,0.20
2023-08-28T22:25:19.959Z,0.40
2023-08-28T22:28:08.410Z,0.57
2023-08-28T22:30:56.344Z,0.30
2023-08-28T22:33:44.180Z,0.30
2023-08-28T22:36:31.825Z,0.40
2023-08-28T22:39:19.576Z,0.80
2023-08-28T22:42:07.380Z,0.40
2023-08-28T22:44:55.302Z,0.52
2023-08-28T22:47:43.064Z,0.63
2023-08-28T22:50:30.992Z,0.55
2023-08-28T22:53:18.730Z,0.70
2023-08-28T22:56:06.548Z,0.50
2023-08-28T22:58:54.261Z,1.23
2023-08-28T23:01:42.089Z,0.50
2023-08-28T23:04:29.759Z,0.40
2023-08-28T23:07:17.460Z,0.70
2023-08-28T23:10:05.899Z,0.93
2023-08-28T23:12:53.639Z,0.60
2023-08-28T23:15:43.209Z,0.77
2023-08-28T23:18:31.639Z,0.52
2023-08-28T23:21:19.411Z,0.68
2023-08-28T23:24:12.937Z,0.68
2023-08-28T23:27:01.136Z,0.25
2023-08-28T23:29:48.943Z,0.60
2023-08-28T23:32:36.640Z,1.00
2023-08-28T23:35:24.476Z,0.40
2023-08-28T23:38:12.100Z,0.85
2023-08-28T23:41:00.028Z,0.47
2023-08-28T23:43:48.160Z,0.50
2023-08-28T23:46:35.843Z,0.60
2023-08-28T23:49:23.457Z,0.90
2023-08-28T23:52:11.326Z,0.52
2023-08-28T23:54:59.001Z,0.63
2023-08-28T23:57:46.740Z,0.57
